Latest Weather Observations for Pallamana

IDS60801

Issued at 11:05 am CDT Monday 24 November 2014 (issued every 30 minutes, with the page automatically refreshed every 10 minutes)

About weather observations | Map of weather stations | Latest weather observations for SA | Other Formats
Station Details ID: 024584 Name: PALLAMANA AERODROME Lat: -35.06 Lon: 139.23 Height: 45.0 m
Data from the previous 72 hours. | See also: Recent months at Pallamana
Date/Time
CDT
Temp
°C
App
Temp
°C
Dew
Point
Rel
Hum
%
Delta-T
°C
Wind Press
QNH
hPa
Press
MSL
hPa
Rain
since 9 am
mm
Dir
 
Spd
km/h
Gust
km/h
Spd
kts
Gust
kts
24/11:00am 22.4 17.5 10.1 45 6.7 SSW 26 37 14 20 1012.6 1012.4 0.0
24/10:30am 22.4 18.7 10.1 45 6.7 SSW 20 26 11 14 1012.6 1012.4 0.0
24/10:00am 20.8 16.1 9.4 48 6.1 SSW 24 35 13 19 1012.7 1012.5 0.0
24/09:30am 21.1 15.0 9.8 48 6.1 SW 32 41 17 22 1012.4 1012.2 0.0
24/09:00am 19.1 13.7 11.0 59 4.4 SW 30 37 16 20 1011.9 1011.7 0.2
24/08:30am 19.2 14.2 10.9 58 4.5 SSW 28 35 15 19 1011.5 1011.3 0.2
24/08:00am 17.0 11.8 11.7 71 2.9 SSW 30 39 16 21 1011.1 1011.0 0.2
24/07:30am 16.2 12.5 12.8 80 1.9 SW 24 33 13 18 1010.3 1010.2 0.2
24/07:00am 16.3 13.2 13.5 83 1.6 SW 22 30 12 16 1009.8 1009.7 0.2
24/06:30am 16.0 12.9 13.3 84 1.5 SW 22 30 12 16 1009.8 1009.7 0.2
24/06:00am 16.0 13.8 13.3 84 1.5 SW 17 24 9 13 1009.3 1009.2 0.2
24/05:30am 16.2 14.6 13.9 86 1.3 SW 15 19 8 10 1008.5 1008.4 0.2
24/05:00am 16.6 14.0 13.8 83 1.6 SSW 20 32 11 17 1007.9 1007.8 0.2
24/04:30am 16.4 11.8 11.2 71 2.8 SW 26 35 14 19 1008.0 1007.9 0.2
24/04:00am 16.4 12.8 11.8 74 2.5 SW 22 28 12 15 1007.1 1007.0 0.2
24/03:30am 16.1 14.5 12.7 80 1.9 SW 13 15 7 8 1007.0 1006.9 0.2
24/03:00am 16.3 15.7 12.3 77 2.2 SSW 7 9 4 5 1007.7 1007.6 0.2
24/02:30am 17.0 16.5 12.5 75 2.5 W 7 11 4 6 1007.8 1007.7 0.2
24/02:00am 17.6 16.6 12.2 70 3.0 W 9 13 5 7 1008.3 1008.2 0.2
24/01:30am 17.5 15.4 12.3 71 2.9 WSW 15 19 8 10 1009.0 1008.9 0.2
24/01:00am 17.4 15.4 12.6 73 2.7 WSW 15 17 8 9 1009.0 1008.9 0.2
24/12:30am 17.5 15.9 12.7 73 2.7 WSW 13 15 7 8 1009.6 1009.5 0.2
24/12:00am 17.5 15.9 12.9 74 2.6 WSW 13 17 7 9 1009.9 1009.8 0.2
 
Date/Time
CDT
Temp
°C
App
Temp
°C
Dew
Point
Rel
Hum
%
Delta-T
°C
Wind Press
QNH
hPa
Press
MSL
hPa
Rain
since 9 am
mm
Dir
 
Spd
km/h
Gust
km/h
Spd
kts
Gust
kts
23/11:30pm 18.2 16.6 12.9 71 3.0 SW 13 15 7 8 1009.9 1009.8 0.2
23/11:00pm 18.4 17.0 13.5 73 2.8 SW 13 17 7 9 1010.4 1010.3 0.2
23/10:30pm 19.2 17.9 13.6 70 3.2 SW 13 17 7 9 1010.5 1010.4 0.2
23/10:00pm 20.2 18.2 14.0 67 3.6 WSW 17 22 9 12 1010.5 1010.4 0.2
23/09:30pm 21.1 19.7 14.4 65 3.9 SW 15 19 8 10 1010.1 1010.0 0.2
23/09:00pm 21.2 19.7 13.2 60 4.6 SSW 13 13 7 7 1009.8 1009.7 0.2
23/08:30pm 22.2 21.5 13.2 56 5.2 S 9 13 5 7 1009.4 1009.3 0.2
23/08:00pm 24.1 23.3 12.9 49 6.5 SE 9 13 5 7 1009.1 1009.0 0.2
23/07:30pm 26.3 23.2 11.6 40 8.4 ESE 19 26 10 14 1009.0 1008.9 0.2
23/07:00pm 27.5 23.7 11.2 36 9.3 ESE 22 28 12 15 1009.0 1008.9 0.2
23/06:30pm 28.3 24.9 11.2 34 9.8 ENE 20 26 11 14 1009.6 1009.5 0.2
23/06:00pm 28.2 24.4 11.3 35 9.7 E 22 28 12 15 1010.0 1009.9 0.2
23/05:30pm 28.6 25.6 11.9 35 9.7 E 19 30 10 16 1009.7 1009.6 0.2
23/05:00pm 30.4 28.0 11.5 31 11.0 E 15 22 8 12 1009.8 1009.7 0.2
23/04:30pm 30.0 28.0 11.6 32 10.7 ESE 13 17 7 9 1010.2 1010.1 0.2
23/04:00pm 28.2 25.8 11.5 35 9.6 SE 15 19 8 10 1010.5 1010.4 0.2
23/03:30pm 28.4 27.1 11.4 34 9.8 E 9 17 5 9 1011.6 1011.4 0.2
23/03:00pm 27.8 26.7 12.1 37 9.1 E 9 15 5 8 1011.7 1011.5 0.2
23/02:30pm 27.8 26.7 11.9 37 9.2 NE 9 13 5 7 1011.3 1011.1 0.2
23/02:00pm 26.6 25.0 11.6 39 8.6 E 11 17 6 9 1011.4 1011.2 0.2
23/01:30pm 26.2 25.0 11.7 40 8.3 ENE 9 15 5 8 1012.3 1012.1 0.2
23/01:00pm 25.0 23.8 11.6 43 7.6 ENE 9 15 5 8 1012.5 1012.3 0.2
23/12:30pm 24.7 23.7 12.3 46 7.1 N 9 17 5 9 1012.7 1012.5 0.2
23/12:00pm 24.6 23.1 12.0 45 7.2 E 11 17 6 9 1013.0 1012.8 0.2
23/11:30am 24.1 23.1 12.4 48 6.7 NNE 9 20 5 11 1013.0 1012.8 0.2
23/11:00am 22.0 20.6 12.3 54 5.5 ENE 11 15 6 8 1013.0 1012.8 0.2
23/10:30am 20.9 20.0 12.6 59 4.7 ESE 9 17 5 9 1012.8 1012.6 0.2
23/10:00am 20.2 18.9 12.6 61 4.3 E 11 19 6 10 1012.8 1012.6 0.0
23/09:30am 19.2 18.5 12.0 63 4.0 ENE 7 13 4 7 1013.3 1013.2 0.0
23/09:00am 18.4 18.2 12.9 70 3.1 SE 6 9 3 5 1013.2 1013.0 6.0
23/08:30am 17.8 17.6 13.6 76 2.4 SSE 7 11 4 6 1013.2 1013.0 6.0
23/08:00am 16.6 16.5 13.4 81 1.8 SSW 6 9 3 5 1013.3 1013.2 6.0
23/07:30am 15.4 16.2 13.6 89 1.0 NE 2 7 1 4 1013.1 1012.9 6.0
23/07:00am 13.4 14.3 12.9 97 0.3 CALM 0 4 0 2 1013.1 1012.9 6.0
23/06:30am 12.1 12.5 11.3 95 0.4 CALM 0 0 0 0 1013.1 1012.9 6.0
23/06:00am 12.6 11.0 11.5 93 0.6 W 11 13 6 7 1012.8 1012.6 6.0
23/05:30am 12.6 11.0 11.5 93 0.6 W 11 13 6 7 1012.7 1012.5 6.0
23/05:00am 12.3 10.6 11.2 93 0.6 WNW 11 15 6 8 1012.7 1012.5 6.0
23/04:30am 13.1 11.2 11.8 92 0.7 W 13 15 7 8 1012.2 1012.0 6.0
23/04:00am 13.1 11.6 11.8 92 0.7 W 11 13 6 7 1012.4 1012.2 6.0
23/03:30am 13.4 11.5 11.9 91 0.8 W 13 17 7 9 1012.0 1011.8 6.0
23/03:00am 13.7 11.5 12.2 91 0.8 W 15 17 8 9 1012.0 1011.8 6.0
23/02:30am 13.9 12.2 12.6 92 0.7 W 13 17 7 9 1012.2 1012.0 6.0
23/02:00am 13.9 12.2 12.6 92 0.7 W 13 17 7 9 1012.3 1012.1 6.0
23/01:30am 14.1 12.2 13.0 93 0.6 W 15 17 8 9 1012.5 1012.3 6.0
23/01:00am 14.2 13.1 13.1 93 0.6 W 11 13 6 7 1012.8 1012.6 6.0
23/12:30am 14.2 13.5 13.1 93 0.6 WSW 9 11 5 6 1012.9 1012.7 5.8
23/12:00am 14.3 13.2 13.2 93 0.6 WSW 11 13 6 7 1013.1 1012.9 5.8
 
Date/Time
CDT
Temp
°C
App
Temp
°C
Dew
Point
Rel
Hum
%
Delta-T
°C
Wind Press
QNH
hPa
Press
MSL
hPa
Rain
since 9 am
mm
Dir
 
Spd
km/h
Gust
km/h
Spd
kts
Gust
kts
22/11:30pm 14.7 14.1 13.4 92 0.7 WSW 9 13 5 7 1013.0 1012.8 5.8
22/11:00pm 14.9 13.6 13.7 92 0.7 SW 13 15 7 8 1012.9 1012.7 5.8
22/10:30pm 15.2 14.6 13.6 90 0.9 SW 9 13 5 7 1012.8 1012.6 5.8
22/10:00pm 15.7 16.6 13.9 89 1.0 S 2 6 1 3 1012.6 1012.4 5.8
22/09:30pm 16.1 15.7 14.0 87 1.2 S 9 13 5 7 1012.1 1011.9 5.8
22/09:00pm 16.8 15.4 14.4 86 1.4 SSW 15 19 8 10 1011.5 1011.3 5.8
22/08:30pm 17.3 15.1 14.5 83 1.6 SSW 19 28 10 15 1011.1 1011.0 5.8
22/08:00pm 18.1 15.2 15.0 82 1.8 SSW 24 33 13 18 1010.5 1010.4 5.8
22/07:30pm 19.0 16.3 14.5 75 2.6 SSW 22 35 12 19 1009.8 1009.7 5.8
22/07:00pm 19.5 17.5 15.4 77 2.4 SSW 20 32 11 17 1009.1 1009.0 5.8
22/06:30pm 21.1 17.7 15.9 72 3.1 SSW 28 35 15 19 1008.3 1008.2 5.8
22/06:20pm 23.6 20.7 17.0 66 4.1 SSW 28 39 15 21 1008.0 1007.9 5.8
22/06:00pm 23.5 25.2 19.3 77 2.7 SSE 9 19 5 10 1007.6 1007.5 5.8
22/05:30pm 23.6 24.7 19.7 79 2.5 S 13 19 7 10 1007.5 1007.4 5.8
22/05:00pm 22.7 25.1 18.8 78 2.5 SE 4 7 2 4 1007.3 1007.2 5.8
22/04:30pm 22.2 24.8 19.2 83 1.9 SW 4 9 2 5 1006.9 1006.8 5.8
22/04:00pm 21.9 23.5 17.9 78 2.5 N 6 7 3 4 1007.4 1007.3 4.8
22/03:30pm 21.7 23.2 18.0 79 2.3 W 7 13 4 7 1007.0 1006.9 4.8
22/03:00pm 21.1 20.9 17.7 81 2.1 N 15 19 8 10 1007.1 1007.0 4.6
22/02:30pm 20.0 18.4 16.5 80 2.1 NE 20 30 11 16 1006.7 1006.6 4.6
22/02:24pm 19.6 18.1 16.8 84 1.7 NNE 20 28 11 15 1006.8 1006.7 4.6
22/02:00pm 21.2 20.8 16.2 73 3.0 N 13 17 7 9 1008.8 1008.7 4.0
22/01:30pm 21.6 20.3 16.7 73 3.0 N 19 26 10 14 1007.8 1007.7 4.0
22/01:00pm 20.7 18.8 16.8 78 2.4 N 22 28 12 15 1007.7 1007.6 4.0
22/12:30pm 19.7 17.8 15.3 76 2.6 N 19 30 10 16 1008.6 1008.5 3.6
22/12:00pm 19.8 18.3 16.7 82 1.9 N 20 30 11 16 1007.7 1007.6 3.6
22/11:43am 18.5 15.8 15.6 83 1.7 N 24 37 13 20 1007.8 1007.7 3.4
22/11:30am 18.5 15.8 15.6 83 1.7 NNW 24 35 13 19 1009.9 1009.8 3.0
22/11:00am 18.4 17.2 16.2 87 1.3 N 17 24 9 13 1008.4 1008.3 3.0
22/10:48am 18.4 16.8 16.4 88 1.2 N 20 26 11 14 1008.4 1008.3 2.8
22/10:30am 18.2 16.6 16.0 87 1.3 WNW 19 22 10 12 1010.5 1010.4 2.4
22/10:27am 18.0 17.1 15.8 87 1.3 NNW 15 17 8 9 1010.1 1010.0 2.2
22/10:00am 17.7 15.7 15.5 87 1.3 NE 20 26 11 14 1008.1 1008.0 0.8
22/09:30am 18.2 17.3 15.8 86 1.4 NNE 15 20 8 11 1010.0 1009.9 0.4
22/09:00am 18.5 16.8 14.7 78 2.2 N 17 22 9 12 1010.8 1010.7 1.2
22/08:30am 18.5 17.5 14.7 78 2.2 N 13 17 7 9 1009.3 1009.2 0.2
22/08:00am 17.8 15.1 13.6 76 2.4 N 20 24 11 13 1009.4 1009.3 0.2
22/07:30am 19.5 16.1 9.1 51 5.5 NNE 17 24 9 13 1008.2 1008.1 0.0
22/07:00am 19.9 15.8 7.7 45 6.3 N 19 26 10 14 1007.5 1007.4 0.0
22/06:30am 18.8 13.7 7.7 48 5.7 NNE 24 32 13 17 1006.7 1006.6 0.0
22/06:00am 17.4 13.1 8.0 54 4.8 N 20 26 11 14 1008.1 1008.0 0.0
22/05:30am 16.7 13.6 7.3 54 4.7 NNE 13 17 7 9 1007.3 1007.2 0.0
22/05:00am 16.4 12.5 7.2 54 4.6 NNE 17 20 9 11 1007.0 1006.9 0.0
22/04:30am 15.6 11.4 7.4 58 4.1 NNE 19 24 10 13 1006.9 1006.8 0.0
22/04:00am 14.4 12.2 7.8 64 3.3 N 9 11 5 6 1007.1 1007.0 0.0
22/03:30am 16.0 12.9 7.4 56 4.3 N 13 17 7 9 1007.2 1007.1 0.0
22/03:00am 14.0 11.0 7.8 66 3.1 N 13 15 7 8 1007.2 1007.1 0.0
22/02:30am 14.0 10.6 7.8 66 3.1 N 15 17 8 9 1007.8 1007.7 0.0
22/02:00am 14.4 10.6 7.5 63 3.4 N 17 19 9 10 1008.3 1008.2 0.0
22/01:30am 14.9 12.3 7.7 62 3.6 NNW 11 15 6 8 1008.6 1008.5 0.0
22/01:00am 14.8 11.8 7.8 63 3.5 N 13 15 7 8 1009.1 1009.0 0.0
22/12:30am 15.6 12.3 8.1 61 3.8 N 15 19 8 10 1009.5 1009.4 0.0
22/12:00am 16.2 14.2 8.6 60 3.9 N 9 9 5 5 1010.2 1010.1 0.0
 
Date/Time
CDT
Temp
°C
App
Temp
°C
Dew
Point
Rel
Hum
%
Delta-T
°C
Wind Press
QNH
hPa
Press
MSL
hPa
Rain
since 9 am
mm
Dir
 
Spd
km/h
Gust
km/h
Spd
kts
Gust
kts
21/11:30pm 15.6 14.7 9.4 66 3.2 WSW 4 6 2 3 1010.4 1010.3 0.0
21/11:00pm 16.5 15.5 9.0 61 3.9 W 4 7 2 4 1010.8 1010.7 0.0
21/10:30pm 17.7 16.6 9.8 60 4.2 SW 6 7 3 4 1011.5 1011.3 0.0
21/10:00pm 18.2 16.8 9.0 55 4.8 SW 6 7 3 4 1011.7 1011.5 0.0
21/09:30pm 18.6 17.1 8.6 52 5.2 SSW 6 7 3 4 1011.4 1011.2 0.0
21/09:00pm 19.1 16.9 7.8 48 5.8 SW 9 11 5 6 1011.5 1011.3 0.0
21/08:30pm 19.4 17.2 7.7 46 6.0 S 9 11 5 6 1011.3 1011.1 0.0
21/08:00pm 21.9 18.5 6.1 36 8.0 S 13 15 7 8 1010.9 1010.8 0.0
21/07:30pm 23.8 20.7 5.7 31 9.2 S 11 19 6 10 1010.6 1010.5 0.0
21/07:00pm 25.1 21.7 5.8 29 9.9 SSE 13 17 7 9 1010.3 1010.2 0.0
21/06:30pm 25.6 21.9 6.4 29 10.0 SE 15 19 8 10 1010.1 1010.0 0.0
21/06:00pm 25.1 20.7 7.3 32 9.4 SE 20 24 11 13 1010.1 1010.0 0.0
21/05:30pm 26.7 22.9 7.4 29 10.3 SSE 17 24 9 13 1009.9 1009.8 0.0
21/05:00pm 27.5 22.8 6.1 25 11.2 SSE 20 28 11 15 1009.9 1009.8 0.0
21/04:30pm 26.7 22.5 5.6 26 10.9 S 17 26 9 14 1009.9 1009.8 0.0
21/04:00pm 28.0 23.1 -0.8 15 13.4 SSW 15 26 8 14 1010.2 1010.1 0.0
21/03:30pm 27.8 23.0 0.4 17 13.0 W 15 26 8 14 1010.7 1010.6 0.0
21/03:00pm 27.7 22.3 -1.5 15 13.4 WSW 17 24 9 13 1010.7 1010.6 0.0
21/02:30pm 26.4 22.5 -1.7 15 12.7 WSW 9 20 5 11 1010.9 1010.8 0.0
21/02:00pm 27.4 23.0 0.3 17 12.8 WNW 13 24 7 13 1011.5 1011.3 0.0
21/01:30pm 26.1 21.9 1.4 20 11.8 WSW 13 20 7 11 1011.8 1011.6 0.0
21/01:00pm 25.3 21.0 3.0 23 10.9 W 15 20 8 11 1012.2 1012.0 0.0
21/12:30pm 24.6 22.3 5.9 30 9.6 NNE 7 17 4 9 1012.5 1012.3 0.0
21/12:00pm 23.6 21.0 6.2 32 8.9 W 9 15 5 8 1012.8 1012.6 0.0
21/11:30am 22.2 19.4 7.1 37 7.8 WSW 11 19 6 10 1013.2 1013.0 0.0

Other Formats:

Comma delimited format used in spreadsheet applications
http://www.bom.gov.au/fwo/IDS60801/IDS60801.95818.axf

JavaScript Object Notation format (JSON) in row-major order
http://www.bom.gov.au/fwo/IDS60801/IDS60801.95818.json